Surface observations / Quebec / CYHU (71371)

Quebec | Canada | USA | France | UK | Europe | Elsewhere

Display: Info & Location for CYHU (71371) | Help decoding METAR

CYHU MONTREAL/ST HUBERT A QB CN
Raw surface observations for station CYHU
CYHU 302300Z AUTO 03007KT 9SM BKN150 15/09 A3040 RMK SLP296=
CYHU 302200Z AUTO 02007KT 9SM SCT200 16/08 A3040 RMK SLP297=
CYHU 302100Z AUTO 03007KT 9SM BKN210 18/07 A3040 RMK SLP295=
CYHU 302000Z AUTO 05007KT 9SM BKN210 19/06 A3040 RMK SLP297=
CYHU 301900Z AUTO 06006KT 020V080 9SM BKN210 19/06 A3041 RMK SLP300=
CYHU 301800Z AUTO 05006KT 020V090 9SM BKN210 18/07 A3044 RMK SLP310=
CYHU 301700Z AUTO 06008KT 020V090 9SM BKN210 BKN230 17/07 A3047 RMK SLP320=
CYHU 301600Z AUTO 03007KT 360V080 9SM BKN210 BKN230 15/07 A3049 RMK SLP326=
CYHU 301500Z AUTO 04007KT 9SM CLR 13/07 A3050 RMK SLP329=
CYHU 301400Z AUTO 03008KT 9SM CLR 12/07 A3050 RMK SLP332=
CYHU 301300Z AUTO 03010KT 9SM CLR 09/06 A3051 RMK SLP334=
CYHU 301200Z AUTO 02008KT 9SM CLR 07/05 A3051 RMK SLP335=
CYHU 301100Z AUTO 01006KT 9SM CLR 06/05 A3050 RMK SLP330=
CYHU 301000Z AUTO 03008KT 9SM CLR 07/05 A3049 RMK SLP327=
CYHU 300900Z AUTO 02009KT 9SM CLR 07/06 A3048 RMK SLP323=
CYHU 300800Z AUTO 01008KT 9SM BKN140 08/06 A3048 RMK SLP323=
CYHU 300700Z AUTO 01007KT 9SM BKN140 08/06 A3048 RMK SLP324=
CYHU 300600Z AUTO 03006KT 9SM CLR 09/06 A3049 RMK SLP327=
CYHU 300500Z AUTO 01007KT 9SM SCT150 10/07 A3050 RMK SLP331=
CYHU 300400Z AUTO 03009KT 9SM OVC150 11/07 A3050 RMK SLP332=
CYHU 010400Z AUTO 03005KT 9SM BKN130 OVC150 13/09 A3037 RMK SLP285=
CYHU 010300Z AUTO 03007KT 9SM BKN130 OVC150 13/09 A3037 RMK SLP287=
CYHU 010221Z AUTO 04005KT 9SM OVC130 13/09 A3038 RMK SLP290=
CYHU 010209Z AUTO 03006KT 9SM -RA OVC120 13/09 A3039 RMK SLP292=
CYHU 010200Z AUTO 04005KT 9SM BKN130 13/09 A3039 RMK SLP292=
CYHU 010148Z AUTO 04005KT 9SM FEW095 BKN130 13/09 A3038 RMK SLP291=
CYHU 010133Z AUTO 04007KT 9SM -RA SCT100 BKN120 13/09 A3039 RMK SLP293=
CYHU 010100Z AUTO 05005KT 9SM BKN120 14/09 A3039 RMK SLP295=
CYHU 010049Z AUTO 06005KT 9SM OVC120 14/08 A3040 RMK SLP297=
CYHU 010038Z AUTO 05004KT 9SM -RA OVC120 14/08 A3040 RMK SLP296=
CYHU 010000Z AUTO 04004KT 9SM BKN120 OVC140 14/08 A3040 RMK SLP297=